sensor_id;sensor_type;location;lat;lon;timestamp;temperature;humidity
52125;DHT22;38119;52.710;6.398;2023-06-22T00:01:48;19.70;99.90
52125;DHT22;38119;52.710;6.398;2023-06-22T00:04:13;20.40;99.90
52125;DHT22;38119;52.710;6.398;2023-06-22T00:06:39;20.10;99.90
52125;DHT22;38119;52.710;6.398;2023-06-22T00:09:05;19.60;99.90
52125;DHT22;38119;52.710;6.398;2023-06-22T00:11:41;19.60;99.90
52125;DHT22;38119;52.710;6.398;2023-06-22T00:14:07;19.60;99.90
52125;DHT22;38119;52.710;6.398;2023-06-22T00:16:33;19.60;99.90
52125;DHT22;38119;52.710;6.398;2023-06-22T00:18:59;19.60;99.90
52125;DHT22;38119;52.710;6.398;2023-06-22T00:21:29;19.50;99.90
52125;DHT22;38119;52.710;6.398;2023-06-22T00:23:54;19.50;99.90
52125;DHT22;38119;52.710;6.398;2023-06-22T00:26:21;19.40;99.90
52125;DHT22;38119;52.710;6.398;2023-06-22T00:28:47;19.50;99.90
52125;DHT22;38119;52.710;6.398;2023-06-22T00:31:13;19.50;99.90
52125;DHT22;38119;52.710;6.398;2023-06-22T00:33:38;19.50;99.90
52125;DHT22;38119;52.710;6.398;2023-06-22T00:36:05;19.40;99.90
52125;DHT22;38119;52.710;6.398;2023-06-22T00:38:31;19.40;99.90
52125;DHT22;38119;52.710;6.398;2023-06-22T00:40:57;19.50;99.90
52125;DHT22;38119;52.710;6.398;2023-06-22T00:43:22;19.40;99.90
52125;DHT22;38119;52.710;6.398;2023-06-22T00:45:48;19.70;99.90
52125;DHT22;38119;52.710;6.398;2023-06-22T00:48:14;19.40;99.90
52125;DHT22;38119;52.710;6.398;2023-06-22T00:50:41;19.30;99.90
52125;DHT22;38119;52.710;6.398;2023-06-22T00:53:08;19.30;99.90
52125;DHT22;38119;52.710;6.398;2023-06-22T00:55:37;19.30;99.90
52125;DHT22;38119;52.710;6.398;2023-06-22T00:58:05;19.30;99.90
52125;DHT22;38119;52.710;6.398;2023-06-22T01:00:36;19.20;99.90
52125;DHT22;38119;52.710;6.398;2023-06-22T01:03:02;19.30;99.90
52125;DHT22;38119;52.710;6.398;2023-06-22T01:05:28;19.20;99.90
52125;DHT22;38119;52.710;6.398;2023-06-22T01:11:20;19.10;99.90
52125;DHT22;38119;52.710;6.398;2023-06-22T01:13:54;19.10;99.90
52125;DHT22;38119;52.710;6.398;2023-06-22T01:16:25;19.10;99.90
52125;DHT22;38119;52.710;6.398;2023-06-22T01:18:54;19.10;99.90
52125;DHT22;38119;52.710;6.398;2023-06-22T01:21:22;19.10;99.90
52125;DHT22;38119;52.710;6.398;2023-06-22T01:24:20;19.00;99.90
52125;DHT22;38119;52.710;6.398;2023-06-22T01:29:38;19.00;99.90
52125;DHT22;38119;52.710;6.398;2023-06-22T01:32:05;19.00;99.90
52125;DHT22;38119;52.710;6.398;2023-06-22T01:34:33;19.00;99.90
52125;DHT22;38119;52.710;6.398;2023-06-22T01:36:59;19.30;99.90
52125;DHT22;38119;52.710;6.398;2023-06-22T01:39:26;18.90;99.90
52125;DHT22;38119;52.710;6.398;2023-06-22T01:41:53;18.90;99.90
52125;DHT22;38119;52.710;6.398;2023-06-22T01:44:19;18.90;99.90
52125;DHT22;38119;52.710;6.398;2023-06-22T01:46:46;18.90;99.90
52125;DHT22;38119;52.710;6.398;2023-06-22T01:49:13;18.90;99.90
52125;DHT22;38119;52.710;6.398;2023-06-22T01:51:39;18.90;99.90
52125;DHT22;38119;52.710;6.398;2023-06-22T01:54:06;18.90;99.90
52125;DHT22;38119;52.710;6.398;2023-06-22T01:56:32;18.90;99.90
52125;DHT22;38119;52.710;6.398;2023-06-22T01:59:25;18.90;99.90
52125;DHT22;38119;52.710;6.398;2023-06-22T02:02:04;18.90;99.90
52125;DHT22;38119;52.710;6.398;2023-06-22T02:04:39;18.90;99.90
52125;DHT22;38119;52.710;6.398;2023-06-22T02:07:11;18.80;99.90
52125;DHT22;38119;52.710;6.398;2023-06-22T02:09:39;18.80;99.90
52125;DHT22;38119;52.710;6.398;2023-06-22T02:12:06;19.00;99.90
52125;DHT22;38119;52.710;6.398;2023-06-22T02:14:33;18.80;99.90
52125;DHT22;38119;52.710;6.398;2023-06-22T02:16:59;18.80;99.90
52125;DHT22;38119;52.710;6.398;2023-06-22T02:19:27;18.80;99.90
52125;DHT22;38119;52.710;6.398;2023-06-22T02:21:52;18.80;99.90
52125;DHT22;38119;52.710;6.398;2023-06-22T02:24:18;18.70;99.90
52125;DHT22;38119;52.710;6.398;2023-06-22T02:26:44;18.70;99.90
52125;DHT22;38119;52.710;6.398;2023-06-22T02:29:11;18.70;99.90
52125;DHT22;38119;52.710;6.398;2023-06-22T02:31:36;18.70;99.90
52125;DHT22;38119;52.710;6.398;2023-06-22T02:34:02;18.70;99.90
52125;DHT22;38119;52.710;6.398;2023-06-22T02:36:27;18.80;99.90
52125;DHT22;38119;52.710;6.398;2023-06-22T02:38:57;19.10;99.90
52125;DHT22;38119;52.710;6.398;2023-06-22T02:41:26;18.60;99.90
52125;DHT22;38119;52.710;6.398;2023-06-22T02:43:52;18.70;99.90
52125;DHT22;38119;52.710;6.398;2023-06-22T02:46:18;18.60;99.90
52125;DHT22;38119;52.710;6.398;2023-06-22T02:48:44;18.40;99.90
52125;DHT22;38119;52.710;6.398;2023-06-22T02:51:09;18.50;99.90
52125;DHT22;38119;52.710;6.398;2023-06-22T02:53:35;18.90;99.90
52125;DHT22;38119;52.710;6.398;2023-06-22T02:56:03;18.60;99.90
52125;DHT22;38119;52.710;6.398;2023-06-22T02:58:32;18.60;99.90
52125;DHT22;38119;52.710;6.398;2023-06-22T03:01:05;18.60;99.90
52125;DHT22;38119;52.710;6.398;2023-06-22T03:03:31;18.60;99.90
52125;DHT22;38119;52.710;6.398;2023-06-22T03:05:56;18.50;99.90
52125;DHT22;38119;52.710;6.398;2023-06-22T03:08:22;18.60;99.90
52125;DHT22;38119;52.710;6.398;2023-06-22T03:10:47;18.50;99.90
52125;DHT22;38119;52.710;6.398;2023-06-22T03:13:13;18.50;99.90
52125;DHT22;38119;52.710;6.398;2023-06-22T03:15:39;18.40;99.90
52125;DHT22;38119;52.710;6.398;2023-06-22T03:18:04;18.70;99.90
52125;DHT22;38119;52.710;6.398;2023-06-22T03:20:30;18.40;99.90
52125;DHT22;38119;52.710;6.398;2023-06-22T03:22:59;18.50;99.90
52125;DHT22;38119;52.710;6.398;2023-06-22T03:25:24;18.40;99.90
52125;DHT22;38119;52.710;6.398;2023-06-22T03:27:50;18.30;99.90
52125;DHT22;38119;52.710;6.398;2023-06-22T03:30:16;18.40;99.90
52125;DHT22;38119;52.710;6.398;2023-06-22T03:32:41;18.40;99.90
52125;DHT22;38119;52.710;6.398;2023-06-22T03:35:09;18.50;99.90
52125;DHT22;38119;52.710;6.398;2023-06-22T03:37:35;18.30;99.90
52125;DHT22;38119;52.710;6.398;2023-06-22T03:40:01;18.30;99.90
52125;DHT22;38119;52.710;6.398;2023-06-22T03:42:29;18.40;99.90
52125;DHT22;38119;52.710;6.398;2023-06-22T03:44:54;18.30;99.90
52125;DHT22;38119;52.710;6.398;2023-06-22T03:47:20;18.50;99.90
52125;DHT22;38119;52.710;6.398;2023-06-22T03:49:45;18.50;99.90
52125;DHT22;38119;52.710;6.398;2023-06-22T03:52:11;18.30;99.90
52125;DHT22;38119;52.710;6.398;2023-06-22T03:54:37;18.40;99.90
52125;DHT22;38119;52.710;6.398;2023-06-22T03:57:02;18.30;99.90
52125;DHT22;38119;52.710;6.398;2023-06-22T03:59:28;18.30;99.90
52125;DHT22;38119;52.710;6.398;2023-06-22T04:01:54;18.50;99.90
52125;DHT22;38119;52.710;6.398;2023-06-22T04:04:20;18.40;99.90
52125;DHT22;38119;52.710;6.398;2023-06-22T04:06:45;18.50;99.90
52125;DHT22;38119;52.710;6.398;2023-06-22T04:09:11;18.30;99.90
52125;DHT22;38119;52.710;6.398;2023-06-22T04:11:37;18.60;99.90
52125;DHT22;38119;52.710;6.398;2023-06-22T04:14:03;18.60;99.90
52125;DHT22;38119;52.710;6.398;2023-06-22T04:16:28;18.40;99.90
52125;DHT22;38119;52.710;6.398;2023-06-22T04:18:54;18.60;99.90
52125;DHT22;38119;52.710;6.398;2023-06-22T04:21:19;18.40;99.90
52125;DHT22;38119;52.710;6.398;2023-06-22T04:23:46;18.40;99.90
52125;DHT22;38119;52.710;6.398;2023-06-22T04:26:12;18.50;99.90
52125;DHT22;38119;52.710;6.398;2023-06-22T04:28:39;18.40;99.90
52125;DHT22;38119;52.710;6.398;2023-06-22T04:31:05;18.40;99.90
52125;DHT22;38119;52.710;6.398;2023-06-22T04:33:31;18.40;99.90
52125;DHT22;38119;52.710;6.398;2023-06-22T04:35:57;18.40;99.90
52125;DHT22;38119;52.710;6.398;2023-06-22T04:38:23;18.40;99.90
52125;DHT22;38119;52.710;6.398;2023-06-22T04:40:50;18.40;99.90
52125;DHT22;38119;52.710;6.398;2023-06-22T04:43:19;18.40;99.90
52125;DHT22;38119;52.710;6.398;2023-06-22T04:45:45;18.50;99.90
52125;DHT22;38119;52.710;6.398;2023-06-22T04:48:11;18.40;99.90
52125;DHT22;38119;52.710;6.398;2023-06-22T04:50:41;18.40;99.90
52125;DHT22;38119;52.710;6.398;2023-06-22T04:53:07;18.50;99.90
52125;DHT22;38119;52.710;6.398;2023-06-22T04:55:38;18.50;99.90
52125;DHT22;38119;52.710;6.398;2023-06-22T04:58:07;18.50;99.90
52125;DHT22;38119;52.710;6.398;2023-06-22T05:00:33;18.50;99.90
52125;DHT22;38119;52.710;6.398;2023-06-22T05:03:02;18.60;99.90
52125;DHT22;38119;52.710;6.398;2023-06-22T05:05:29;18.60;99.90
52125;DHT22;38119;52.710;6.398;2023-06-22T05:07:56;18.60;99.90
52125;DHT22;38119;52.710;6.398;2023-06-22T05:10:25;19.00;99.90
52125;DHT22;38119;52.710;6.398;2023-06-22T05:12:51;18.60;99.90
52125;DHT22;38119;52.710;6.398;2023-06-22T05:15:17;18.60;99.90
52125;DHT22;38119;52.710;6.398;2023-06-22T05:17:44;18.70;99.90
52125;DHT22;38119;52.710;6.398;2023-06-22T05:20:11;19.00;99.90
52125;DHT22;38119;52.710;6.398;2023-06-22T05:22:38;18.70;99.90
52125;DHT22;38119;52.710;6.398;2023-06-22T05:25:07;18.70;99.90
52125;DHT22;38119;52.710;6.398;2023-06-22T05:27:33;18.70;99.90
52125;DHT22;38119;52.710;6.398;2023-06-22T05:29:59;18.90;99.90
52125;DHT22;38119;52.710;6.398;2023-06-22T05:32:24;18.80;99.90
52125;DHT22;38119;52.710;6.398;2023-06-22T05:34:50;18.80;99.90
52125;DHT22;38119;52.710;6.398;2023-06-22T05:37:15;18.80;99.90
52125;DHT22;38119;52.710;6.398;2023-06-22T05:39:41;18.90;99.90
52125;DHT22;38119;52.710;6.398;2023-06-22T05:42:07;19.30;99.90
52125;DHT22;38119;52.710;6.398;2023-06-22T05:44:33;18.90;99.90
52125;DHT22;38119;52.710;6.398;2023-06-22T05:46:59;19.00;99.90
52125;DHT22;38119;52.710;6.398;2023-06-22T05:49:25;19.00;99.90
52125;DHT22;38119;52.710;6.398;2023-06-22T05:51:55;19.10;99.90
52125;DHT22;38119;52.710;6.398;2023-06-22T05:54:22;19.20;99.90
52125;DHT22;38119;52.710;6.398;2023-06-22T05:56:48;19.20;99.90
52125;DHT22;38119;52.710;6.398;2023-06-22T05:59:13;19.80;99.90
52125;DHT22;38119;52.710;6.398;2023-06-22T06:01:39;19.30;99.90
52125;DHT22;38119;52.710;6.398;2023-06-22T06:04:06;19.30;99.90
52125;DHT22;38119;52.710;6.398;2023-06-22T06:06:33;19.40;99.90
52125;DHT22;38119;52.710;6.398;2023-06-22T06:09:03;19.40;99.90
52125;DHT22;38119;52.710;6.398;2023-06-22T06:11:29;19.40;99.90
52125;DHT22;38119;52.710;6.398;2023-06-22T06:13:54;19.50;99.90
52125;DHT22;38119;52.710;6.398;2023-06-22T06:16:21;19.50;99.90
52125;DHT22;38119;52.710;6.398;2023-06-22T06:18:51;19.50;99.90
52125;DHT22;38119;52.710;6.398;2023-06-22T06:21:19;19.50;99.90
52125;DHT22;38119;52.710;6.398;2023-06-22T06:23:46;19.60;99.90
52125;DHT22;38119;52.710;6.398;2023-06-22T06:26:22;19.60;99.90
52125;DHT22;38119;52.710;6.398;2023-06-22T06:28:56;18.80;99.90
52125;DHT22;38119;52.710;6.398;2023-06-22T06:31:56;19.70;99.90
52125;DHT22;38119;52.710;6.398;2023-06-22T06:38:54;19.90;99.90
52125;DHT22;38119;52.710;6.398;2023-06-22T06:42:13;20.10;99.90
52125;DHT22;38119;52.710;6.398;2023-06-22T06:44:44;20.10;99.90
52125;DHT22;38119;52.710;6.398;2023-06-22T06:47:39;20.20;99.90
52125;DHT22;38119;52.710;6.398;2023-06-22T06:50:12;20.30;99.90
52125;DHT22;38119;52.710;6.398;2023-06-22T06:52:43;20.30;99.90
52125;DHT22;38119;52.710;6.398;2023-06-22T06:55:13;20.30;99.90
52125;DHT22;38119;52.710;6.398;2023-06-22T06:57:59;20.50;99.90
52125;DHT22;38119;52.710;6.398;2023-06-22T07:00:35;20.50;99.90
52125;DHT22;38119;52.710;6.398;2023-06-22T07:03:20;20.50;99.90
52125;DHT22;38119;52.710;6.398;2023-06-22T07:05:54;19.90;99.90
52125;DHT22;38119;52.710;6.398;2023-06-22T07:08:32;20.60;99.90
52125;DHT22;38119;52.710;6.398;2023-06-22T07:12:08;20.70;99.90
52125;DHT22;38119;52.710;6.398;2023-06-22T07:15:10;20.70;99.90
52125;DHT22;38119;52.710;6.398;2023-06-22T07:18:08;20.80;99.90
52125;DHT22;38119;52.710;6.398;2023-06-22T07:21:35;20.90;99.90
52125;DHT22;38119;52.710;6.398;2023-06-22T07:24:28;20.90;99.90
52125;DHT22;38119;52.710;6.398;2023-06-22T07:27:19;20.90;99.90
52125;DHT22;38119;52.710;6.398;2023-06-22T07:34:24;21.00;99.90
52125;DHT22;38119;52.710;6.398;2023-06-22T07:37:49;21.00;99.90
52125;DHT22;38119;52.710;6.398;2023-06-22T07:41:06;21.10;99.90
52125;DHT22;38119;52.710;6.398;2023-06-22T07:44:32;21.10;99.90
52125;DHT22;38119;52.710;6.398;2023-06-22T07:48:43;21.10;99.90
52125;DHT22;38119;52.710;6.398;2023-06-22T07:52:24;21.20;99.90
52125;DHT22;38119;52.710;6.398;2023-06-22T07:55:17;21.30;99.90
52125;DHT22;38119;52.710;6.398;2023-06-22T07:59:05;21.40;99.90
52125;DHT22;38119;52.710;6.398;2023-06-22T08:01:55;21.50;99.90
52125;DHT22;38119;52.710;6.398;2023-06-22T08:05:28;21.50;99.90
52125;DHT22;38119;52.710;6.398;2023-06-22T08:09:15;21.50;99.90
52125;DHT22;38119;52.710;6.398;2023-06-22T08:12:53;21.70;99.90
52125;DHT22;38119;52.710;6.398;2023-06-22T08:16:21;21.80;99.90
52125;DHT22;38119;52.710;6.398;2023-06-22T08:19:24;21.90;99.90
52125;DHT22;38119;52.710;6.398;2023-06-22T08:21:57;22.10;99.90
52125;DHT22;38119;52.710;6.398;2023-06-22T08:25:07;22.30;99.90
52125;DHT22;38119;52.710;6.398;2023-06-22T08:28:19;22.50;99.90
52125;DHT22;38119;52.710;6.398;2023-06-22T08:31:18;22.80;99.90
52125;DHT22;38119;52.710;6.398;2023-06-22T08:34:52;23.20;99.90
52125;DHT22;38119;52.710;6.398;2023-06-22T08:38:01;23.60;99.90
52125;DHT22;38119;52.710;6.398;2023-06-22T08:41:47;24.00;99.90
52125;DHT22;38119;52.710;6.398;2023-06-22T08:45:13;24.30;99.90
52125;DHT22;38119;52.710;6.398;2023-06-22T08:47:41;24.60;99.90
52125;DHT22;38119;52.710;6.398;2023-06-22T08:50:14;24.80;99.90
52125;DHT22;38119;52.710;6.398;2023-06-22T08:52:42;25.00;99.80
52125;DHT22;38119;52.710;6.398;2023-06-22T08:55:10;25.20;99.60
52125;DHT22;38119;52.710;6.398;2023-06-22T08:57:37;25.40;99.20
52125;DHT22;38119;52.710;6.398;2023-06-22T09:00:08;25.60;98.60
52125;DHT22;38119;52.710;6.398;2023-06-22T09:03:00;25.80;97.80
52125;DHT22;38119;52.710;6.398;2023-06-22T09:05:40;26.00;97.70
52125;DHT22;38119;52.710;6.398;2023-06-22T09:08:29;26.30;97.10
52125;DHT22;38119;52.710;6.398;2023-06-22T09:10:57;26.50;97.00
52125;DHT22;38119;52.710;6.398;2023-06-22T09:13:27;26.70;96.00
52125;DHT22;38119;52.710;6.398;2023-06-22T09:16:02;26.90;95.40
52125;DHT22;38119;52.710;6.398;2023-06-22T09:18:28;27.10;94.70
52125;DHT22;38119;52.710;6.398;2023-06-22T09:20:56;27.20;94.30
52125;DHT22;38119;52.710;6.398;2023-06-22T09:23:27;27.30;94.50
52125;DHT22;38119;52.710;6.398;2023-06-22T09:25:54;27.50;94.30
52125;DHT22;38119;52.710;6.398;2023-06-22T09:28:22;27.60;93.20
52125;DHT22;38119;52.710;6.398;2023-06-22T09:31:09;27.70;92.70
52125;DHT22;38119;52.710;6.398;2023-06-22T09:33:42;27.70;91.80
52125;DHT22;38119;52.710;6.398;2023-06-22T09:36:10;27.50;91.70
52125;DHT22;38119;52.710;6.398;2023-06-22T09:38:40;27.50;91.90
52125;DHT22;38119;52.710;6.398;2023-06-22T09:41:15;27.60;91.60
52125;DHT22;38119;52.710;6.398;2023-06-22T09:44:06;27.40;91.40
52125;DHT22;38119;52.710;6.398;2023-06-22T09:46:57;27.30;91.50
52125;DHT22;38119;52.710;6.398;2023-06-22T09:49:24;27.40;91.70
52125;DHT22;38119;52.710;6.398;2023-06-22T09:51:57;27.50;91.50
52125;DHT22;38119;52.710;6.398;2023-06-22T09:54:30;27.50;91.30
52125;DHT22;38119;52.710;6.398;2023-06-22T09:57:04;27.60;91.10
52125;DHT22;38119;52.710;6.398;2023-06-22T09:59:33;27.60;90.90
52125;DHT22;38119;52.710;6.398;2023-06-22T10:02:03;27.50;91.20
52125;DHT22;38119;52.710;6.398;2023-06-22T10:04:41;27.50;91.00
52125;DHT22;38119;52.710;6.398;2023-06-22T10:07:10;27.60;90.90
52125;DHT22;38119;52.710;6.398;2023-06-22T10:09:46;27.70;91.10
52125;DHT22;38119;52.710;6.398;2023-06-22T10:12:27;27.90;90.90
52125;DHT22;38119;52.710;6.398;2023-06-22T10:15:14;28.00;90.70
52125;DHT22;38119;52.710;6.398;2023-06-22T10:18:08;28.10;90.20
52125;DHT22;38119;52.710;6.398;2023-06-22T10:20:37;28.30;90.00
52125;DHT22;38119;52.710;6.398;2023-06-22T10:23:52;28.50;89.90
52125;DHT22;38119;52.710;6.398;2023-06-22T10:26:43;28.80;89.30
52125;DHT22;38119;52.710;6.398;2023-06-22T10:29:36;29.00;88.20
52125;DHT22;38119;52.710;6.398;2023-06-22T10:32:47;29.00;85.60
52125;DHT22;38119;52.710;6.398;2023-06-22T10:35:14;29.00;85.70
52125;DHT22;38119;52.710;6.398;2023-06-22T10:38:05;29.00;85.80
52125;DHT22;38119;52.710;6.398;2023-06-22T10:41:25;28.90;84.80
52125;DHT22;38119;52.710;6.398;2023-06-22T10:44:14;29.00;84.40
52125;DHT22;38119;52.710;6.398;2023-06-22T10:47:02;28.90;84.30
52125;DHT22;38119;52.710;6.398;2023-06-22T10:50:12;28.80;83.60
52125;DHT22;38119;52.710;6.398;2023-06-22T10:53:05;28.60;83.30
52125;DHT22;38119;52.710;6.398;2023-06-22T10:56:40;28.40;83.90
52125;DHT22;38119;52.710;6.398;2023-06-22T11:52:01;26.90;88.00
52125;DHT22;38119;52.710;6.398;2023-06-22T11:59:28;26.80;89.00
52125;DHT22;38119;52.710;6.398;2023-06-22T12:10:49;26.70;87.80
52125;DHT22;38119;52.710;6.398;2023-06-22T13:39:36;25.20;90.60
52125;DHT22;38119;52.710;6.398;2023-06-22T13:51:19;25.10;90.40
52125;DHT22;38119;52.710;6.398;2023-06-22T14:08:31;24.80;90.10
52125;DHT22;38119;52.710;6.398;2023-06-22T14:11:18;24.80;90.10
52125;DHT22;38119;52.710;6.398;2023-06-22T14:13:48;24.70;90.60
52125;DHT22;38119;52.710;6.398;2023-06-22T14:16:41;24.60;90.90
52125;DHT22;38119;52.710;6.398;2023-06-22T14:19:33;24.50;91.60
52125;DHT22;38119;52.710;6.398;2023-06-22T14:22:51;24.40;91.90
52125;DHT22;38119;52.710;6.398;2023-06-22T14:25:40;24.40;92.40
52125;DHT22;38119;52.710;6.398;2023-06-22T14:28:10;24.20;92.90
52125;DHT22;38119;52.710;6.398;2023-06-22T14:30:41;24.20;93.30
52125;DHT22;38119;52.710;6.398;2023-06-22T14:33:29;24.10;93.50
52125;DHT22;38119;52.710;6.398;2023-06-22T14:36:39;24.00;93.90
52125;DHT22;38119;52.710;6.398;2023-06-22T14:55:03;23.60;98.50
52125;DHT22;38119;52.710;6.398;2023-06-22T14:58:14;23.50;99.20
52125;DHT22;38119;52.710;6.398;2023-06-22T15:06:11;23.30;99.90
52125;DHT22;38119;52.710;6.398;2023-06-22T15:16:25;23.20;99.90
52125;DHT22;38119;52.710;6.398;2023-06-22T15:38:37;23.00;99.90
52125;DHT22;38119;52.710;6.398;2023-06-22T15:45:48;22.90;99.90
52125;DHT22;38119;52.710;6.398;2023-06-22T15:49:10;22.80;99.90
52125;DHT22;38119;52.710;6.398;2023-06-22T15:56:31;22.70;99.90
52125;DHT22;38119;52.710;6.398;2023-06-22T16:03:58;22.60;99.90
52125;DHT22;38119;52.710;6.398;2023-06-22T16:11:47;22.00;99.90
52125;DHT22;38119;52.710;6.398;2023-06-22T16:29:47;22.20;99.90
52125;DHT22;38119;52.710;6.398;2023-06-22T16:36:41;22.20;99.90
52125;DHT22;38119;52.710;6.398;2023-06-22T16:42:51;22.10;99.90
52125;DHT22;38119;52.710;6.398;2023-06-22T16:45:59;22.10;99.90
52125;DHT22;38119;52.710;6.398;2023-06-22T16:48:24;22.00;99.90
52125;DHT22;38119;52.710;6.398;2023-06-22T16:50:56;21.90;99.90
52125;DHT22;38119;52.710;6.398;2023-06-22T16:57:41;21.90;99.90
52125;DHT22;38119;52.710;6.398;2023-06-22T17:00:33;21.90;99.90
52125;DHT22;38119;52.710;6.398;2023-06-22T17:03:06;21.80;99.90
52125;DHT22;38119;52.710;6.398;2023-06-22T17:05:56;21.70;99.90
52125;DHT22;38119;52.710;6.398;2023-06-22T17:09:26;21.70;99.90
52125;DHT22;38119;52.710;6.398;2023-06-22T17:11:55;21.60;99.90
52125;DHT22;38119;52.710;6.398;2023-06-22T17:14:21;21.60;99.90
52125;DHT22;38119;52.710;6.398;2023-06-22T17:16:48;21.50;99.90
52125;DHT22;38119;52.710;6.398;2023-06-22T17:19:16;22.30;99.90
52125;DHT22;38119;52.710;6.398;2023-06-22T17:21:43;21.50;99.90
52125;DHT22;38119;52.710;6.398;2023-06-22T17:24:18;21.30;99.90
52125;DHT22;38119;52.710;6.398;2023-06-22T17:26:54;21.40;99.90
52125;DHT22;38119;52.710;6.398;2023-06-22T17:29:20;21.30;99.90
52125;DHT22;38119;52.710;6.398;2023-06-22T17:31:47;21.20;99.90
52125;DHT22;38119;52.710;6.398;2023-06-22T17:34:14;21.20;99.90
52125;DHT22;38119;52.710;6.398;2023-06-22T17:36:45;21.20;99.90
52125;DHT22;38119;52.710;6.398;2023-06-22T17:39:18;21.60;99.90
52125;DHT22;38119;52.710;6.398;2023-06-22T17:41:45;21.10;99.90
52125;DHT22;38119;52.710;6.398;2023-06-22T17:44:27;21.10;99.90
52125;DHT22;38119;52.710;6.398;2023-06-22T17:46:54;21.00;99.90
52125;DHT22;38119;52.710;6.398;2023-06-22T17:49:21;21.60;99.90
52125;DHT22;38119;52.710;6.398;2023-06-22T17:51:50;20.90;99.90
52125;DHT22;38119;52.710;6.398;2023-06-22T17:54:16;20.90;99.90
52125;DHT22;38119;52.710;6.398;2023-06-22T17:56:41;20.80;99.90
52125;DHT22;38119;52.710;6.398;2023-06-22T17:59:07;20.80;99.90
52125;DHT22;38119;52.710;6.398;2023-06-22T18:04:06;20.70;99.90
52125;DHT22;38119;52.710;6.398;2023-06-22T18:06:38;21.00;99.90
52125;DHT22;38119;52.710;6.398;2023-06-22T18:09:06;21.10;99.90
52125;DHT22;38119;52.710;6.398;2023-06-22T18:11:50;21.30;99.90
52125;DHT22;38119;52.710;6.398;2023-06-22T18:14:19;20.60;99.90
52125;DHT22;38119;52.710;6.398;2023-06-22T18:16:50;20.50;99.90
52125;DHT22;38119;52.710;6.398;2023-06-22T18:19:18;20.50;99.90
52125;DHT22;38119;52.710;6.398;2023-06-22T18:21:47;20.40;99.90
52125;DHT22;38119;52.710;6.398;2023-06-22T18:24:17;20.40;99.90
52125;DHT22;38119;52.710;6.398;2023-06-22T18:26:44;20.40;99.90
52125;DHT22;38119;52.710;6.398;2023-06-22T18:29:10;20.40;99.90
52125;DHT22;38119;52.710;6.398;2023-06-22T18:31:37;20.40;99.90
52125;DHT22;38119;52.710;6.398;2023-06-22T18:34:02;20.30;99.90
52125;DHT22;38119;52.710;6.398;2023-06-22T18:36:34;20.30;99.90
52125;DHT22;38119;52.710;6.398;2023-06-22T18:39:02;20.20;99.90
52125;DHT22;38119;52.710;6.398;2023-06-22T18:41:37;20.20;99.90
52125;DHT22;38119;52.710;6.398;2023-06-22T18:44:20;20.10;99.90
52125;DHT22;38119;52.710;6.398;2023-06-22T18:46:52;20.10;99.90
52125;DHT22;38119;52.710;6.398;2023-06-22T18:49:22;20.10;99.90
52125;DHT22;38119;52.710;6.398;2023-06-22T18:52:17;20.00;99.90
52125;DHT22;38119;52.710;6.398;2023-06-22T18:54:47;20.00;99.90
52125;DHT22;38119;52.710;6.398;2023-06-22T19:12:56;19.80;99.90
52125;DHT22;38119;52.710;6.398;2023-06-22T19:15:29;19.70;99.90
52125;DHT22;38119;52.710;6.398;2023-06-22T19:18:00;19.70;99.90
52125;DHT22;38119;52.710;6.398;2023-06-22T19:20:31;19.70;99.90
52125;DHT22;38119;52.710;6.398;2023-06-22T19:22:58;19.60;99.90
52125;DHT22;38119;52.710;6.398;2023-06-22T19:25:28;19.70;99.90
52125;DHT22;38119;52.710;6.398;2023-06-22T19:28:01;19.70;99.90
52125;DHT22;38119;52.710;6.398;2023-06-22T19:30:27;19.60;99.90
52125;DHT22;38119;52.710;6.398;2023-06-22T19:32:55;19.60;99.90
52125;DHT22;38119;52.710;6.398;2023-06-22T19:35:21;19.60;99.90
52125;DHT22;38119;52.710;6.398;2023-06-22T19:37:48;19.50;99.90
52125;DHT22;38119;52.710;6.398;2023-06-22T19:40:15;19.50;99.90
52125;DHT22;38119;52.710;6.398;2023-06-22T19:42:43;19.50;99.90
52125;DHT22;38119;52.710;6.398;2023-06-22T19:45:14;19.50;99.90
52125;DHT22;38119;52.710;6.398;2023-06-22T19:47:40;19.40;99.90
52125;DHT22;38119;52.710;6.398;2023-06-22T19:50:06;19.40;99.90
52125;DHT22;38119;52.710;6.398;2023-06-22T19:55:02;19.40;99.90
52125;DHT22;38119;52.710;6.398;2023-06-22T19:57:35;19.40;99.90
52125;DHT22;38119;52.710;6.398;2023-06-22T20:00:03;19.40;99.90
52125;DHT22;38119;52.710;6.398;2023-06-22T20:02:37;19.30;99.90
52125;DHT22;38119;52.710;6.398;2023-06-22T20:05:06;19.30;99.90
52125;DHT22;38119;52.710;6.398;2023-06-22T20:07:40;19.30;99.90
52125;DHT22;38119;52.710;6.398;2023-06-22T20:12:35;19.20;99.90
52125;DHT22;38119;52.710;6.398;2023-06-22T20:17:53;19.20;99.90
52125;DHT22;38119;52.710;6.398;2023-06-22T20:20:24;19.20;99.90
52125;DHT22;38119;52.710;6.398;2023-06-22T20:22:50;19.80;99.90
52125;DHT22;38119;52.710;6.398;2023-06-22T20:25:22;19.20;99.90
52125;DHT22;38119;52.710;6.398;2023-06-22T20:27:49;19.20;99.90
52125;DHT22;38119;52.710;6.398;2023-06-22T20:30:16;19.20;99.90
52125;DHT22;38119;52.710;6.398;2023-06-22T20:32:49;19.20;99.90
52125;DHT22;38119;52.710;6.398;2023-06-22T20:35:17;19.20;99.90
52125;DHT22;38119;52.710;6.398;2023-06-22T20:37:42;19.10;99.90
52125;DHT22;38119;52.710;6.398;2023-06-22T20:40:08;19.60;99.90
52125;DHT22;38119;52.710;6.398;2023-06-22T20:42:35;19.20;99.90
52125;DHT22;38119;52.710;6.398;2023-06-22T20:45:00;19.00;99.90
52125;DHT22;38119;52.710;6.398;2023-06-22T20:47:26;19.10;99.90
52125;DHT22;38119;52.710;6.398;2023-06-22T20:49:52;19.10;99.90
52125;DHT22;38119;52.710;6.398;2023-06-22T20:52:22;19.10;99.90
52125;DHT22;38119;52.710;6.398;2023-06-22T20:54:48;19.10;99.90
52125;DHT22;38119;52.710;6.398;2023-06-22T20:57:13;19.10;99.90
52125;DHT22;38119;52.710;6.398;2023-06-22T20:59:39;19.10;99.90
52125;DHT22;38119;52.710;6.398;2023-06-22T21:02:05;19.10;99.90
52125;DHT22;38119;52.710;6.398;2023-06-22T21:04:30;19.00;99.90
52125;DHT22;38119;52.710;6.398;2023-06-22T21:06:56;19.00;99.90
52125;DHT22;38119;52.710;6.398;2023-06-22T21:09:21;19.00;99.90
52125;DHT22;38119;52.710;6.398;2023-06-22T21:11:47;19.00;99.90
52125;DHT22;38119;52.710;6.398;2023-06-22T21:14:12;19.20;99.90
52125;DHT22;38119;52.710;6.398;2023-06-22T21:16:38;19.00;99.90
52125;DHT22;38119;52.710;6.398;2023-06-22T21:19:04;19.00;99.90
52125;DHT22;38119;52.710;6.398;2023-06-22T21:21:29;19.00;99.90
52125;DHT22;38119;52.710;6.398;2023-06-22T21:23:55;19.00;99.90
52125;DHT22;38119;52.710;6.398;2023-06-22T21:26:20;19.00;99.90
52125;DHT22;38119;52.710;6.398;2023-06-22T21:28:46;19.20;99.90
52125;DHT22;38119;52.710;6.398;2023-06-22T21:31:11;19.00;99.90
52125;DHT22;38119;52.710;6.398;2023-06-22T21:33:37;18.90;99.90